sensor_id;sensor_type;location;lat;lon;timestamp;P1;durP1;ratioP1;P2;durP2;ratioP2
9904;SDS011;4991;43.566;27.820;2023-06-10T00:00:37;7.30;;;3.93;;
9904;SDS011;4991;43.566;27.820;2023-06-10T00:03:03;4.57;;;3.90;;
9904;SDS011;4991;43.566;27.820;2023-06-10T00:05:28;5.93;;;4.00;;
9904;SDS011;4991;43.566;27.820;2023-06-10T00:07:57;5.33;;;3.60;;
9904;SDS011;4991;43.566;27.820;2023-06-10T00:10:23;4.80;;;3.87;;
9904;SDS011;4991;43.566;27.820;2023-06-10T00:12:49;7.07;;;4.30;;
9904;SDS011;4991;43.566;27.820;2023-06-10T00:15:15;4.33;;;3.93;;
9904;SDS011;4991;43.566;27.820;2023-06-10T00:17:40;4.47;;;3.87;;
9904;SDS011;4991;43.566;27.820;2023-06-10T00:20:09;6.50;;;4.00;;
9904;SDS011;4991;43.566;27.820;2023-06-10T00:22:38;6.33;;;4.20;;
9904;SDS011;4991;43.566;27.820;2023-06-10T00:25:05;4.63;;;4.17;;
9904;SDS011;4991;43.566;27.820;2023-06-10T00:27:32;6.33;;;4.60;;
9904;SDS011;4991;43.566;27.820;2023-06-10T00:30:03;8.77;;;4.23;;
9904;SDS011;4991;43.566;27.820;2023-06-10T00:32:32;6.00;;;3.93;;
9904;SDS011;4991;43.566;27.820;2023-06-10T00:35:01;5.43;;;4.20;;
9904;SDS011;4991;43.566;27.820;2023-06-10T00:37:30;4.77;;;4.30;;
9904;SDS011;4991;43.566;27.820;2023-06-10T00:39:57;6.23;;;4.20;;
9904;SDS011;4991;43.566;27.820;2023-06-10T00:42:23;7.77;;;4.30;;
9904;SDS011;4991;43.566;27.820;2023-06-10T00:44:50;5.40;;;4.40;;
9904;SDS011;4991;43.566;27.820;2023-06-10T00:47:16;5.00;;;3.87;;
9904;SDS011;4991;43.566;27.820;2023-06-10T00:49:42;5.03;;;4.00;;
9904;SDS011;4991;43.566;27.820;2023-06-10T00:52:08;7.70;;;4.30;;
9904;SDS011;4991;43.566;27.820;2023-06-10T00:54:35;4.80;;;4.20;;
9904;SDS011;4991;43.566;27.820;2023-06-10T00:57:02;4.40;;;4.00;;
9904;SDS011;4991;43.566;27.820;2023-06-10T00:59:29;7.33;;;4.70;;
9904;SDS011;4991;43.566;27.820;2023-06-10T01:01:56;7.20;;;4.20;;
9904;SDS011;4991;43.566;27.820;2023-06-10T01:04:22;4.47;;;4.07;;
9904;SDS011;4991;43.566;27.820;2023-06-10T01:09:24;7.90;;;4.23;;
9904;SDS011;4991;43.566;27.820;2023-06-10T01:11:58;6.83;;;4.57;;
9904;SDS011;4991;43.566;27.820;2023-06-10T01:14:34;6.43;;;4.37;;
9904;SDS011;4991;43.566;27.820;2023-06-10T01:17:01;6.03;;;4.33;;
9904;SDS011;4991;43.566;27.820;2023-06-10T01:19:28;5.60;;;4.57;;
9904;SDS011;4991;43.566;27.820;2023-06-10T01:21:56;6.90;;;4.70;;
9904;SDS011;4991;43.566;27.820;2023-06-10T01:24:26;4.70;;;4.17;;
9904;SDS011;4991;43.566;27.820;2023-06-10T01:26:53;6.77;;;4.23;;
9904;SDS011;4991;43.566;27.820;2023-06-10T01:29:32;6.73;;;4.43;;
9904;SDS011;4991;43.566;27.820;2023-06-10T01:32:08;6.27;;;4.47;;
9904;SDS011;4991;43.566;27.820;2023-06-10T01:34:41;5.87;;;4.17;;
9904;SDS011;4991;43.566;27.820;2023-06-10T01:37:09;7.03;;;4.97;;
9904;SDS011;4991;43.566;27.820;2023-06-10T01:39:40;6.80;;;4.50;;
9904;SDS011;4991;43.566;27.820;2023-06-10T01:42:07;9.97;;;5.23;;
9904;SDS011;4991;43.566;27.820;2023-06-10T01:44:35;6.37;;;4.73;;
9904;SDS011;4991;43.566;27.820;2023-06-10T01:47:00;8.03;;;4.63;;
9904;SDS011;4991;43.566;27.820;2023-06-10T01:49:26;5.00;;;4.50;;
9904;SDS011;4991;43.566;27.820;2023-06-10T01:51:53;8.60;;;4.50;;
9904;SDS011;4991;43.566;27.820;2023-06-10T01:54:19;5.70;;;4.30;;
9904;SDS011;4991;43.566;27.820;2023-06-10T01:56:45;5.27;;;4.77;;
9904;SDS011;4991;43.566;27.820;2023-06-10T01:59:10;6.67;;;4.53;;
9904;SDS011;4991;43.566;27.820;2023-06-10T02:01:36;9.87;;;4.90;;
9904;SDS011;4991;43.566;27.820;2023-06-10T02:04:01;8.23;;;5.53;;
9904;SDS011;4991;43.566;27.820;2023-06-10T02:06:27;5.07;;;4.57;;
9904;SDS011;4991;43.566;27.820;2023-06-10T02:08:53;7.13;;;4.90;;
9904;SDS011;4991;43.566;27.820;2023-06-10T02:11:18;8.70;;;4.33;;
9904;SDS011;4991;43.566;27.820;2023-06-10T02:13:44;6.27;;;4.70;;
9904;SDS011;4991;43.566;27.820;2023-06-10T02:16:10;7.80;;;5.30;;
9904;SDS011;4991;43.566;27.820;2023-06-10T02:18:38;16.30;;;4.77;;
9904;SDS011;4991;43.566;27.820;2023-06-10T02:21:08;6.27;;;4.77;;
9904;SDS011;4991;43.566;27.820;2023-06-10T02:23:33;4.70;;;4.20;;
9904;SDS011;4991;43.566;27.820;2023-06-10T02:26:00;5.90;;;5.30;;
9904;SDS011;4991;43.566;27.820;2023-06-10T02:28:26;6.77;;;4.27;;
9904;SDS011;4991;43.566;27.820;2023-06-10T02:30:51;7.23;;;5.33;;
9904;SDS011;4991;43.566;27.820;2023-06-10T02:33:17;7.73;;;5.03;;
9904;SDS011;4991;43.566;27.820;2023-06-10T02:35:42;8.93;;;4.70;;
9904;SDS011;4991;43.566;27.820;2023-06-10T02:38:08;7.40;;;5.10;;
9904;SDS011;4991;43.566;27.820;2023-06-10T02:40:34;8.37;;;5.13;;
9904;SDS011;4991;43.566;27.820;2023-06-10T02:42:59;8.47;;;5.00;;
9904;SDS011;4991;43.566;27.820;2023-06-10T02:45:25;9.77;;;5.50;;
9904;SDS011;4991;43.566;27.820;2023-06-10T02:47:50;6.60;;;5.03;;
9904;SDS011;4991;43.566;27.820;2023-06-10T02:50:16;8.37;;;7.27;;
9904;SDS011;4991;43.566;27.820;2023-06-10T02:52:42;6.07;;;5.47;;
9904;SDS011;4991;43.566;27.820;2023-06-10T02:55:07;9.03;;;7.00;;
9904;SDS011;4991;43.566;27.820;2023-06-10T02:57:33;8.70;;;4.90;;
9904;SDS011;4991;43.566;27.820;2023-06-10T02:59:59;7.93;;;5.57;;
9904;SDS011;4991;43.566;27.820;2023-06-10T03:02:24;7.13;;;5.17;;
9904;SDS011;4991;43.566;27.820;2023-06-10T03:04:55;5.27;;;4.37;;
9904;SDS011;4991;43.566;27.820;2023-06-10T03:07:21;9.30;;;4.80;;
9904;SDS011;4991;43.566;27.820;2023-06-10T03:09:46;8.30;;;4.83;;
9904;SDS011;4991;43.566;27.820;2023-06-10T03:12:12;7.73;;;5.23;;
9904;SDS011;4991;43.566;27.820;2023-06-10T03:14:37;7.13;;;5.07;;
9904;SDS011;4991;43.566;27.820;2023-06-10T03:17:04;7.03;;;5.47;;
9904;SDS011;4991;43.566;27.820;2023-06-10T03:19:30;9.43;;;5.73;;
9904;SDS011;4991;43.566;27.820;2023-06-10T03:22:08;8.83;;;5.73;;
9904;SDS011;4991;43.566;27.820;2023-06-10T03:24:35;7.83;;;5.40;;
9904;SDS011;4991;43.566;27.820;2023-06-10T03:27:01;7.17;;;6.00;;
9904;SDS011;4991;43.566;27.820;2023-06-10T03:29:30;11.30;;;5.27;;
9904;SDS011;4991;43.566;27.820;2023-06-10T03:31:55;7.80;;;5.57;;
9904;SDS011;4991;43.566;27.820;2023-06-10T03:34:21;11.67;;;5.63;;
9904;SDS011;4991;43.566;27.820;2023-06-10T03:36:48;8.37;;;5.50;;
9904;SDS011;4991;43.566;27.820;2023-06-10T03:39:14;8.47;;;6.27;;
9904;SDS011;4991;43.566;27.820;2023-06-10T03:41:40;9.77;;;6.43;;
9904;SDS011;4991;43.566;27.820;2023-06-10T03:44:06;7.53;;;5.97;;
9904;SDS011;4991;43.566;27.820;2023-06-10T03:46:32;6.80;;;5.47;;
9904;SDS011;4991;43.566;27.820;2023-06-10T03:48:57;6.30;;;5.37;;
9904;SDS011;4991;43.566;27.820;2023-06-10T03:51:25;7.67;;;5.60;;
9904;SDS011;4991;43.566;27.820;2023-06-10T03:53:51;8.33;;;5.07;;
9904;SDS011;4991;43.566;27.820;2023-06-10T03:56:17;7.80;;;5.63;;
9904;SDS011;4991;43.566;27.820;2023-06-10T03:58:43;10.83;;;5.63;;
9904;SDS011;4991;43.566;27.820;2023-06-10T04:01:08;8.90;;;6.07;;
9904;SDS011;4991;43.566;27.820;2023-06-10T04:03:35;8.30;;;5.60;;
9904;SDS011;4991;43.566;27.820;2023-06-10T04:06:01;11.53;;;5.70;;
9904;SDS011;4991;43.566;27.820;2023-06-10T04:08:27;7.67;;;5.93;;
9904;SDS011;4991;43.566;27.820;2023-06-10T04:10:53;7.13;;;5.73;;
9904;SDS011;4991;43.566;27.820;2023-06-10T04:13:19;6.27;;;5.27;;
9904;SDS011;4991;43.566;27.820;2023-06-10T04:15:44;9.27;;;6.30;;
9904;SDS011;4991;43.566;27.820;2023-06-10T04:18:10;10.13;;;6.10;;
9904;SDS011;4991;43.566;27.820;2023-06-10T04:20:36;10.90;;;6.30;;
9904;SDS011;4991;43.566;27.820;2023-06-10T04:23:01;11.33;;;7.63;;
9904;SDS011;4991;43.566;27.820;2023-06-10T04:25:27;9.23;;;7.17;;
9904;SDS011;4991;43.566;27.820;2023-06-10T04:27:53;9.53;;;7.83;;
9904;SDS011;4991;43.566;27.820;2023-06-10T04:30:19;9.13;;;6.50;;
9904;SDS011;4991;43.566;27.820;2023-06-10T04:32:45;9.60;;;6.37;;
9904;SDS011;4991;43.566;27.820;2023-06-10T04:35:12;9.77;;;6.67;;
9904;SDS011;4991;43.566;27.820;2023-06-10T04:37:38;6.87;;;5.60;;
9904;SDS011;4991;43.566;27.820;2023-06-10T04:40:03;8.57;;;6.23;;
9904;SDS011;4991;43.566;27.820;2023-06-10T04:42:30;10.80;;;6.53;;
9904;SDS011;4991;43.566;27.820;2023-06-10T04:44:56;13.37;;;7.83;;
9904;SDS011;4991;43.566;27.820;2023-06-10T04:47:22;13.30;;;7.90;;
9904;SDS011;4991;43.566;27.820;2023-06-10T04:49:48;9.07;;;6.23;;
9904;SDS011;4991;43.566;27.820;2023-06-10T04:52:13;8.43;;;5.90;;
9904;SDS011;4991;43.566;27.820;2023-06-10T04:54:39;8.70;;;5.83;;
9904;SDS011;4991;43.566;27.820;2023-06-10T04:57:06;8.53;;;6.00;;
9904;SDS011;4991;43.566;27.820;2023-06-10T04:59:33;11.63;;;6.30;;
9904;SDS011;4991;43.566;27.820;2023-06-10T05:02:02;8.50;;;4.93;;
9904;SDS011;4991;43.566;27.820;2023-06-10T05:04:29;6.40;;;5.23;;
9904;SDS011;4991;43.566;27.820;2023-06-10T05:06:55;11.43;;;5.80;;
9904;SDS011;4991;43.566;27.820;2023-06-10T05:09:21;6.93;;;5.07;;
9904;SDS011;4991;43.566;27.820;2023-06-10T05:11:46;6.67;;;4.63;;
9904;SDS011;4991;43.566;27.820;2023-06-10T05:14:12;6.53;;;5.70;;
9904;SDS011;4991;43.566;27.820;2023-06-10T05:16:38;8.30;;;4.70;;
9904;SDS011;4991;43.566;27.820;2023-06-10T05:19:04;4.93;;;4.17;;
9904;SDS011;4991;43.566;27.820;2023-06-10T05:21:30;7.70;;;4.90;;
9904;SDS011;4991;43.566;27.820;2023-06-10T05:23:55;7.37;;;5.20;;
9904;SDS011;4991;43.566;27.820;2023-06-10T05:26:21;9.63;;;5.10;;
9904;SDS011;4991;43.566;27.820;2023-06-10T05:28:47;5.80;;;4.53;;
9904;SDS011;4991;43.566;27.820;2023-06-10T05:31:13;6.57;;;4.67;;
9904;SDS011;4991;43.566;27.820;2023-06-10T05:33:39;7.43;;;5.00;;
9904;SDS011;4991;43.566;27.820;2023-06-10T05:36:05;8.40;;;5.57;;
9904;SDS011;4991;43.566;27.820;2023-06-10T05:38:31;6.40;;;5.50;;
9904;SDS011;4991;43.566;27.820;2023-06-10T05:40:56;7.97;;;5.03;;
9904;SDS011;4991;43.566;27.820;2023-06-10T05:43:24;6.70;;;4.60;;
9904;SDS011;4991;43.566;27.820;2023-06-10T05:45:49;7.80;;;5.57;;
9904;SDS011;4991;43.566;27.820;2023-06-10T05:48:15;7.23;;;4.13;;
9904;SDS011;4991;43.566;27.820;2023-06-10T05:50:40;5.80;;;4.20;;
9904;SDS011;4991;43.566;27.820;2023-06-10T05:53:07;5.37;;;4.27;;
9904;SDS011;4991;43.566;27.820;2023-06-10T05:55:43;9.27;;;4.30;;
9904;SDS011;4991;43.566;27.820;2023-06-10T05:58:09;8.57;;;4.43;;
9904;SDS011;4991;43.566;27.820;2023-06-10T06:00:38;7.00;;;3.97;;
9904;SDS011;4991;43.566;27.820;2023-06-10T06:03:06;5.83;;;3.50;;
9904;SDS011;4991;43.566;27.820;2023-06-10T06:05:33;4.63;;;2.67;;
9904;SDS011;4991;43.566;27.820;2023-06-10T06:08:03;5.57;;;3.13;;
9904;SDS011;4991;43.566;27.820;2023-06-10T06:10:29;2.80;;;2.27;;
9904;SDS011;4991;43.566;27.820;2023-06-10T06:12:55;6.03;;;2.67;;
9904;SDS011;4991;43.566;27.820;2023-06-10T06:15:21;4.30;;;2.33;;
9904;SDS011;4991;43.566;27.820;2023-06-10T06:17:46;5.33;;;2.70;;
9904;SDS011;4991;43.566;27.820;2023-06-10T06:20:12;2.97;;;2.27;;
9904;SDS011;4991;43.566;27.820;2023-06-10T06:22:37;4.43;;;2.37;;
9904;SDS011;4991;43.566;27.820;2023-06-10T06:25:03;4.77;;;2.90;;
9904;SDS011;4991;43.566;27.820;2023-06-10T06:27:29;5.00;;;2.80;;
9904;SDS011;4991;43.566;27.820;2023-06-10T06:29:55;3.83;;;2.63;;
9904;SDS011;4991;43.566;27.820;2023-06-10T06:32:20;4.30;;;2.63;;
9904;SDS011;4991;43.566;27.820;2023-06-10T06:34:47;6.43;;;2.97;;
9904;SDS011;4991;43.566;27.820;2023-06-10T06:37:21;5.53;;;2.63;;
9904;SDS011;4991;43.566;27.820;2023-06-10T06:39:47;4.03;;;2.50;;
9904;SDS011;4991;43.566;27.820;2023-06-10T06:42:13;3.43;;;2.13;;
9904;SDS011;4991;43.566;27.820;2023-06-10T06:44:39;4.20;;;2.33;;
9904;SDS011;4991;43.566;27.820;2023-06-10T06:47:05;3.25;;;2.00;;
9904;SDS011;4991;43.566;27.820;2023-06-10T06:49:31;3.50;;;2.30;;
9904;SDS011;4991;43.566;27.820;2023-06-10T06:51:56;3.37;;;2.60;;
9904;SDS011;4991;43.566;27.820;2023-06-10T06:54:22;3.27;;;2.47;;
9904;SDS011;4991;43.566;27.820;2023-06-10T06:56:47;4.07;;;2.40;;
9904;SDS011;4991;43.566;27.820;2023-06-10T06:59:13;4.10;;;2.50;;
9904;SDS011;4991;43.566;27.820;2023-06-10T07:01:39;3.88;;;2.30;;
9904;SDS011;4991;43.566;27.820;2023-06-10T07:04:05;3.20;;;2.45;;
9904;SDS011;4991;43.566;27.820;2023-06-10T07:06:30;4.87;;;3.10;;
9904;SDS011;4991;43.566;27.820;2023-06-10T07:08:56;2.33;;;2.03;;
9904;SDS011;4991;43.566;27.820;2023-06-10T07:11:23;3.87;;;2.40;;
9904;SDS011;4991;43.566;27.820;2023-06-10T07:13:48;2.72;;;2.40;;
9904;SDS011;4991;43.566;27.820;2023-06-10T07:16:14;7.13;;;2.13;;
9904;SDS011;4991;43.566;27.820;2023-06-10T07:18:40;4.93;;;2.30;;
9904;SDS011;4991;43.566;27.820;2023-06-10T07:21:05;4.38;;;2.90;;
9904;SDS011;4991;43.566;27.820;2023-06-10T07:23:31;4.43;;;2.17;;
9904;SDS011;4991;43.566;27.820;2023-06-10T07:25:57;11.77;;;3.38;;
9904;SDS011;4991;43.566;27.820;2023-06-10T07:28:22;2.40;;;2.20;;
9904;SDS011;4991;43.566;27.820;2023-06-10T07:30:48;4.43;;;2.65;;
9904;SDS011;4991;43.566;27.820;2023-06-10T07:33:13;3.08;;;2.50;;
9904;SDS011;4991;43.566;27.820;2023-06-10T07:35:39;4.30;;;2.47;;
9904;SDS011;4991;43.566;27.820;2023-06-10T07:38:05;3.33;;;2.22;;
9904;SDS011;4991;43.566;27.820;2023-06-10T07:40:30;4.07;;;2.50;;
9904;SDS011;4991;43.566;27.820;2023-06-10T07:42:56;5.55;;;3.28;;
9904;SDS011;4991;43.566;27.820;2023-06-10T07:45:22;3.20;;;2.55;;
9904;SDS011;4991;43.566;27.820;2023-06-10T07:47:47;3.38;;;2.42;;
9904;SDS011;4991;43.566;27.820;2023-06-10T07:50:13;3.50;;;2.60;;
9904;SDS011;4991;43.566;27.820;2023-06-10T07:52:39;7.40;;;2.53;;
9904;SDS011;4991;43.566;27.820;2023-06-10T07:55:05;4.78;;;2.80;;
9904;SDS011;4991;43.566;27.820;2023-06-10T07:57:31;3.88;;;2.67;;
9904;SDS011;4991;43.566;27.820;2023-06-10T08:00:00;2.95;;;2.47;;
9904;SDS011;4991;43.566;27.820;2023-06-10T08:02:27;3.78;;;2.63;;
9904;SDS011;4991;43.566;27.820;2023-06-10T08:04:52;3.53;;;2.25;;
9904;SDS011;4991;43.566;27.820;2023-06-10T08:07:19;4.03;;;2.55;;
9904;SDS011;4991;43.566;27.820;2023-06-10T08:09:44;6.05;;;2.60;;
9904;SDS011;4991;43.566;27.820;2023-06-10T08:12:11;3.70;;;2.42;;
9904;SDS011;4991;43.566;27.820;2023-06-10T08:14:36;3.85;;;2.53;;
9904;SDS011;4991;43.566;27.820;2023-06-10T08:17:02;5.35;;;2.88;;
9904;SDS011;4991;43.566;27.820;2023-06-10T08:19:30;3.72;;;2.65;;
9904;SDS011;4991;43.566;27.820;2023-06-10T08:21:56;3.55;;;2.65;;
9904;SDS011;4991;43.566;27.820;2023-06-10T08:24:21;2.70;;;2.45;;
9904;SDS011;4991;43.566;27.820;2023-06-10T08:26:47;2.60;;;2.40;;
9904;SDS011;4991;43.566;27.820;2023-06-10T08:29:12;3.67;;;2.78;;
9904;SDS011;4991;43.566;27.820;2023-06-10T08:31:42;4.57;;;2.47;;
9904;SDS011;4991;43.566;27.820;2023-06-10T08:34:08;4.45;;;2.72;;
9904;SDS011;4991;43.566;27.820;2023-06-10T08:36:35;3.17;;;2.55;;
9904;SDS011;4991;43.566;27.820;2023-06-10T08:39:01;3.58;;;2.60;;
9904;SDS011;4991;43.566;27.820;2023-06-10T08:41:28;7.25;;;2.97;;
9904;SDS011;4991;43.566;27.820;2023-06-10T08:44:09;4.75;;;2.85;;
9904;SDS011;4991;43.566;27.820;2023-06-10T08:46:44;9.10;;;2.80;;
9904;SDS011;4991;43.566;27.820;2023-06-10T08:49:11;4.93;;;2.53;;
9904;SDS011;4991;43.566;27.820;2023-06-10T08:51:43;3.05;;;2.35;;
9904;SDS011;4991;43.566;27.820;2023-06-10T08:54:18;5.32;;;3.03;;
9904;SDS011;4991;43.566;27.820;2023-06-10T08:56:48;4.80;;;2.70;;
9904;SDS011;4991;43.566;27.820;2023-06-10T08:59:18;2.45;;;2.22;;
9904;SDS011;4991;43.566;27.820;2023-06-10T09:01:44;5.75;;;3.05;;
9904;SDS011;4991;43.566;27.820;2023-06-10T09:04:10;3.63;;;2.90;;
9904;SDS011;4991;43.566;27.820;2023-06-10T09:06:37;5.03;;;2.38;;
9904;SDS011;4991;43.566;27.820;2023-06-10T09:09:05;5.70;;;2.70;;
9904;SDS011;4991;43.566;27.820;2023-06-10T09:11:32;5.78;;;3.20;;
9904;SDS011;4991;43.566;27.820;2023-06-10T09:13:58;3.33;;;2.58;;
9904;SDS011;4991;43.566;27.820;2023-06-10T09:16:24;3.90;;;2.50;;
9904;SDS011;4991;43.566;27.820;2023-06-10T09:18:50;7.63;;;2.70;;
9904;SDS011;4991;43.566;27.820;2023-06-10T09:21:21;4.72;;;3.17;;
9904;SDS011;4991;43.566;27.820;2023-06-10T09:23:50;4.03;;;2.92;;
9904;SDS011;4991;43.566;27.820;2023-06-10T09:26:16;6.35;;;3.75;;
9904;SDS011;4991;43.566;27.820;2023-06-10T09:28:52;4.20;;;2.47;;
9904;SDS011;4991;43.566;27.820;2023-06-10T09:31:28;3.22;;;2.63;;
9904;SDS011;4991;43.566;27.820;2023-06-10T09:33:54;4.40;;;2.80;;
9904;SDS011;4991;43.566;27.820;2023-06-10T09:36:23;3.28;;;2.55;;
9904;SDS011;4991;43.566;27.820;2023-06-10T09:38:49;3.10;;;2.80;;
9904;SDS011;4991;43.566;27.820;2023-06-10T09:41:15;3.15;;;2.85;;
9904;SDS011;4991;43.566;27.820;2023-06-10T09:43:42;3.53;;;2.63;;
9904;SDS011;4991;43.566;27.820;2023-06-10T09:46:18;3.90;;;2.72;;
9904;SDS011;4991;43.566;27.820;2023-06-10T09:48:46;3.13;;;2.60;;
9904;SDS011;4991;43.566;27.820;2023-06-10T09:51:13;3.60;;;2.95;;
9904;SDS011;4991;43.566;27.820;2023-06-10T09:53:39;4.75;;;3.10;;
9904;SDS011;4991;43.566;27.820;2023-06-10T09:56:05;3.45;;;2.90;;
9904;SDS011;4991;43.566;27.820;2023-06-10T09:58:37;7.65;;;3.67;;
9904;SDS011;4991;43.566;27.820;2023-06-10T10:01:05;7.18;;;2.80;;
9904;SDS011;4991;43.566;27.820;2023-06-10T10:03:31;5.10;;;2.70;;
9904;SDS011;4991;43.566;27.820;2023-06-10T10:05:58;4.00;;;3.15;;
9904;SDS011;4991;43.566;27.820;2023-06-10T10:08:25;4.07;;;3.42;;
9904;SDS011;4991;43.566;27.820;2023-06-10T10:10:51;3.50;;;2.70;;
9904;SDS011;4991;43.566;27.820;2023-06-10T10:13:17;3.35;;;3.05;;
9904;SDS011;4991;43.566;27.820;2023-06-10T10:15:43;4.05;;;3.00;;
9904;SDS011;4991;43.566;27.820;2023-06-10T10:18:11;6.35;;;3.13;;
9904;SDS011;4991;43.566;27.820;2023-06-10T10:20:46;5.35;;;3.38;;
9904;SDS011;4991;43.566;27.820;2023-06-10T10:23:17;5.15;;;3.22;;
9904;SDS011;4991;43.566;27.820;2023-06-10T10:25:49;5.57;;;3.55;;
9904;SDS011;4991;43.566;27.820;2023-06-10T10:28:19;6.30;;;3.20;;
9904;SDS011;4991;43.566;27.820;2023-06-10T10:30:50;7.45;;;3.30;;
9904;SDS011;4991;43.566;27.820;2023-06-10T10:33:40;6.88;;;3.38;;
9904;SDS011;4991;43.566;27.820;2023-06-10T10:36:21;4.75;;;3.50;;
9904;SDS011;4991;43.566;27.820;2023-06-10T10:38:47;3.83;;;3.40;;
9904;SDS011;4991;43.566;27.820;2023-06-10T10:41:15;5.00;;;3.30;;
9904;SDS011;4991;43.566;27.820;2023-06-10T10:43:41;4.72;;;2.92;;
9904;SDS011;4991;43.566;27.820;2023-06-10T10:46:14;9.18;;;3.60;;
9904;SDS011;4991;43.566;27.820;2023-06-10T10:48:41;3.17;;;2.83;;
9904;SDS011;4991;43.566;27.820;2023-06-10T10:51:08;4.60;;;3.05;;
9904;SDS011;4991;43.566;27.820;2023-06-10T10:53:34;5.82;;;3.65;;
9904;SDS011;4991;43.566;27.820;2023-06-10T10:56:05;3.92;;;3.35;;
9904;SDS011;4991;43.566;27.820;2023-06-10T10:58:33;9.18;;;3.45;;
9904;SDS011;4991;43.566;27.820;2023-06-10T11:00:59;2.70;;;2.50;;
9904;SDS011;4991;43.566;27.820;2023-06-10T11:03:28;3.67;;;3.05;;
9904;SDS011;4991;43.566;27.820;2023-06-10T11:05:57;3.60;;;3.00;;
9904;SDS011;4991;43.566;27.820;2023-06-10T11:10:58;5.22;;;3.55;;
9904;SDS011;4991;43.566;27.820;2023-06-10T11:13:25;4.97;;;3.63;;
9904;SDS011;4991;43.566;27.820;2023-06-10T11:15:51;9.70;;;4.15;;
9904;SDS011;4991;43.566;27.820;2023-06-10T11:23:25;4.88;;;3.70;;
9904;SDS011;4991;43.566;27.820;2023-06-10T11:26:09;5.70;;;3.42;;
9904;SDS011;4991;43.566;27.820;2023-06-10T11:28:36;6.95;;;3.40;;
9904;SDS011;4991;43.566;27.820;2023-06-10T11:31:02;4.07;;;3.40;;
9904;SDS011;4991;43.566;27.820;2023-06-10T11:33:27;5.10;;;3.38;;
9904;SDS011;4991;43.566;27.820;2023-06-10T11:35:54;4.97;;;3.35;;
9904;SDS011;4991;43.566;27.820;2023-06-10T11:38:20;5.38;;;3.60;;
9904;SDS011;4991;43.566;27.820;2023-06-10T11:40:47;6.30;;;3.28;;
9904;SDS011;4991;43.566;27.820;2023-06-10T11:43:15;4.30;;;3.30;;
9904;SDS011;4991;43.566;27.820;2023-06-10T11:45:44;3.45;;;3.15;;
9904;SDS011;4991;43.566;27.820;2023-06-10T11:48:10;3.70;;;3.35;;
9904;SDS011;4991;43.566;27.820;2023-06-10T11:50:38;4.88;;;3.38;;
9904;SDS011;4991;43.566;27.820;2023-06-10T11:53:04;7.50;;;3.00;;
9904;SDS011;4991;43.566;27.820;2023-06-10T11:58:15;4.78;;;3.20;;
9904;SDS011;4991;43.566;27.820;2023-06-10T12:00:54;6.68;;;3.90;;
9904;SDS011;4991;43.566;27.820;2023-06-10T12:03:24;5.72;;;3.70;;
9904;SDS011;4991;43.566;27.820;2023-06-10T12:06:03;6.63;;;3.13;;
9904;SDS011;4991;43.566;27.820;2023-06-10T12:08:30;5.82;;;3.50;;
9904;SDS011;4991;43.566;27.820;2023-06-10T12:10:57;3.33;;;3.03;;
9904;SDS011;4991;43.566;27.820;2023-06-10T12:13:26;5.15;;;3.20;;
9904;SDS011;4991;43.566;27.820;2023-06-10T12:15:53;5.10;;;3.40;;
9904;SDS011;4991;43.566;27.820;2023-06-10T12:18:19;5.63;;;3.40;;
9904;SDS011;4991;43.566;27.820;2023-06-10T12:20:46;3.55;;;2.92;;
9904;SDS011;4991;43.566;27.820;2023-06-10T12:23:13;4.45;;;2.90;;
9904;SDS011;4991;43.566;27.820;2023-06-10T12:25:43;4.32;;;3.20;;
9904;SDS011;4991;43.566;27.820;2023-06-10T12:28:16;3.60;;;3.25;;
9904;SDS011;4991;43.566;27.820;2023-06-10T12:30:42;4.45;;;2.97;;
9904;SDS011;4991;43.566;27.820;2023-06-10T12:33:17;6.20;;;2.92;;
9904;SDS011;4991;43.566;27.820;2023-06-10T12:35:51;4.10;;;3.22;;
9904;SDS011;4991;43.566;27.820;2023-06-10T12:38:21;4.40;;;2.90;;
9904;SDS011;4991;43.566;27.820;2023-06-10T12:40:50;3.60;;;2.70;;
9904;SDS011;4991;43.566;27.820;2023-06-10T12:43:22;4.07;;;3.17;;
9904;SDS011;4991;43.566;27.820;2023-06-10T12:45:48;6.53;;;3.35;;
9904;SDS011;4991;43.566;27.820;2023-06-10T12:48:18;7.72;;;2.92;;
9904;SDS011;4991;43.566;27.820;2023-06-10T12:50:50;6.43;;;2.70;;
9904;SDS011;4991;43.566;27.820;2023-06-10T12:53:17;5.88;;;2.90;;
9904;SDS011;4991;43.566;27.820;2023-06-10T12:55:44;7.97;;;3.20;;
9904;SDS011;4991;43.566;27.820;2023-06-10T12:58:12;3.63;;;2.78;;
9904;SDS011;4991;43.566;27.820;2023-06-10T13:00:38;3.70;;;2.75;;
9904;SDS011;4991;43.566;27.820;2023-06-10T13:03:05;4.20;;;3.17;;
9904;SDS011;4991;43.566;27.820;2023-06-10T13:05:32;4.93;;;2.85;;
9904;SDS011;4991;43.566;27.820;2023-06-10T13:07:58;4.15;;;3.00;;
9904;SDS011;4991;43.566;27.820;2023-06-10T13:10:24;4.40;;;3.00;;
9904;SDS011;4991;43.566;27.820;2023-06-10T13:12:51;3.88;;;2.67;;
9904;SDS011;4991;43.566;27.820;2023-06-10T13:15:17;5.00;;;3.00;;
9904;SDS011;4991;43.566;27.820;2023-06-10T13:17:43;3.47;;;2.83;;
9904;SDS011;4991;43.566;27.820;2023-06-10T13:20:11;3.65;;;2.90;;
9904;SDS011;4991;43.566;27.820;2023-06-10T13:22:37;3.72;;;2.80;;
9904;SDS011;4991;43.566;27.820;2023-06-10T13:25:03;2.78;;;2.50;;
9904;SDS011;4991;43.566;27.820;2023-06-10T13:27:29;3.97;;;2.50;;
9904;SDS011;4991;43.566;27.820;2023-06-10T13:29:55;6.57;;;2.70;;
9904;SDS011;4991;43.566;27.820;2023-06-10T13:32:20;7.22;;;3.00;;
9904;SDS011;4991;43.566;27.820;2023-06-10T13:34:46;3.83;;;2.78;;
9904;SDS011;4991;43.566;27.820;2023-06-10T13:37:12;4.85;;;2.83;;
9904;SDS011;4991;43.566;27.820;2023-06-10T13:39:38;4.18;;;2.60;;
9904;SDS011;4991;43.566;27.820;2023-06-10T13:42:04;3.67;;;2.53;;
9904;SDS011;4991;43.566;27.820;2023-06-10T13:44:33;11.02;;;3.13;;
9904;SDS011;4991;43.566;27.820;2023-06-10T13:47:04;4.72;;;2.80;;
9904;SDS011;4991;43.566;27.820;2023-06-10T13:49:30;6.13;;;3.13;;
9904;SDS011;4991;43.566;27.820;2023-06-10T13:51:56;4.68;;;2.80;;
9904;SDS011;4991;43.566;27.820;2023-06-10T13:54:21;4.72;;;2.63;;
9904;SDS011;4991;43.566;27.820;2023-06-10T13:56:47;4.53;;;2.95;;
9904;SDS011;4991;43.566;27.820;2023-06-10T13:59:12;3.75;;;2.92;;
9904;SDS011;4991;43.566;27.820;2023-06-10T14:01:38;5.45;;;2.80;;
9904;SDS011;4991;43.566;27.820;2023-06-10T14:04:05;3.40;;;2.75;;
9904;SDS011;4991;43.566;27.820;2023-06-10T14:06:32;3.67;;;2.75;;
9904;SDS011;4991;43.566;27.820;2023-06-10T14:08:59;5.35;;;2.80;;
9904;SDS011;4991;43.566;27.820;2023-06-10T14:11:24;3.20;;;2.83;;
9904;SDS011;4991;43.566;27.820;2023-06-10T14:13:50;7.43;;;2.80;;
9904;SDS011;4991;43.566;27.820;2023-06-10T14:16:16;4.07;;;2.85;;
9904;SDS011;4991;43.566;27.820;2023-06-10T14:18:41;4.72;;;2.75;;
9904;SDS011;4991;43.566;27.820;2023-06-10T14:21:07;2.88;;;2.58;;
9904;SDS011;4991;43.566;27.820;2023-06-10T14:23:33;5.30;;;2.70;;
9904;SDS011;4991;43.566;27.820;2023-06-10T14:25:59;5.53;;;3.47;;
9904;SDS011;4991;43.566;27.820;2023-06-10T14:28:24;3.97;;;2.58;;
9904;SDS011;4991;43.566;27.820;2023-06-10T14:30:51;5.55;;;3.08;;
9904;SDS011;4991;43.566;27.820;2023-06-10T14:33:17;6.18;;;3.17;;
9904;SDS011;4991;43.566;27.820;2023-06-10T14:35:43;3.58;;;2.90;;
9904;SDS011;4991;43.566;27.820;2023-06-10T14:38:09;5.03;;;3.30;;
9904;SDS011;4991;43.566;27.820;2023-06-10T14:40:35;6.25;;;2.95;;
9904;SDS011;4991;43.566;27.820;2023-06-10T14:43:00;9.48;;;4.07;;
9904;SDS011;4991;43.566;27.820;2023-06-10T14:45:29;4.95;;;3.67;;
9904;SDS011;4991;43.566;27.820;2023-06-10T14:47:55;5.07;;;4.00;;
9904;SDS011;4991;43.566;27.820;2023-06-10T14:50:20;9.38;;;3.80;;
9904;SDS011;4991;43.566;27.820;2023-06-10T14:52:46;4.88;;;3.88;;
9904;SDS011;4991;43.566;27.820;2023-06-10T14:55:12;6.70;;;3.80;;
9904;SDS011;4991;43.566;27.820;2023-06-10T14:57:37;6.50;;;3.78;;
9904;SDS011;4991;43.566;27.820;2023-06-10T15:00:03;4.40;;;3.85;;
9904;SDS011;4991;43.566;27.820;2023-06-10T15:02:29;10.27;;;3.60;;
9904;SDS011;4991;43.566;27.820;2023-06-10T15:04:55;4.78;;;3.55;;
9904;SDS011;4991;43.566;27.820;2023-06-10T15:07:21;6.53;;;4.10;;
9904;SDS011;4991;43.566;27.820;2023-06-10T15:09:46;4.90;;;3.88;;
9904;SDS011;4991;43.566;27.820;2023-06-10T15:12:12;7.47;;;4.25;;